Portada
METAR-TAF:

METAR-TAF

Aeroports :

Seyresse

Dacs, França

latitud: 43-41N, longitud: 001-04W, altitud: 32 m

Observació

L'informe es va fer fa 44 minuts, a les 17:30 UTC
Vent 3 kt del Oest/Sud-Oest
Temperatura 17°C
Humitat 82%
Pressió 1019 hPa
Visibilitat: 6000 m

METAR: LFBY 191730Z AUTO 25003KT 6000 // ////// 17/14 Q1019

Hora: 20:14 (18:14 UTC)

Pronòstic

L'informe es va fer fa 10 hores i 14 minuts, a les 08:00 UTC
Pronòstic vàlid del 19 a les 09 UTC al 19 a les 18 UTC
Vent 3 kt del Sud
Visibilitat: 0300 m
boira
Evolucionant progressivament
l' 19 a les 10 UTC al 19 a les 12 UTC
Visibilitat: 8000 m
Núvols disperses a una alçada de 1000 ft

TAF: LFBY 190800Z 1909/1918 18003KT 0300 FG VV/// BECMG 1910/1912 8000 NSW SCT010

Observacions i pronòstics meteorològics de més de 4000 aeroports (METAR i TAF).

Les estacions disponibles són els punts grocs i vermells al mapa.

Posi el ratolí al punt desitjat per veure el nom de l'estació.

Feu clic per veure les observacions i els pronòstics meteorològics.

Per canviar el mapa: feu clic els botons verds amb una creu de color negre per apropar; al botó verd amb un guió per allunyar la imatge; o en les fletxes verdes per a mapes adjacents.


METAR-TAF: